createdAt,value
2018-11-06T00:02:47.936Z,8.41
2018-11-06T00:05:51.392Z,8.38
2018-11-06T00:08:54.940Z,8.38
2018-11-06T00:11:58.502Z,8.41
2018-11-06T00:15:02.218Z,8.39
2018-11-06T00:18:06.054Z,8.32
2018-11-06T00:21:09.675Z,8.28
2018-11-06T00:24:13.290Z,8.31
2018-11-06T00:27:16.993Z,8.24
2018-11-06T00:30:20.642Z,8.19
2018-11-06T00:33:24.177Z,8.27
2018-11-06T00:36:27.758Z,8.38
2018-11-06T00:39:31.447Z,8.38
2018-11-06T00:42:36.209Z,8.43
2018-11-06T00:45:39.955Z,8.39
2018-11-06T00:48:43.463Z,8.39
2018-11-06T00:51:46.911Z,8.41
2018-11-06T00:54:50.774Z,8.42
2018-11-06T00:57:54.277Z,8.41
2018-11-06T01:00:58.000Z,8.28
2018-11-06T01:04:08.503Z,8.13
2018-11-06T01:07:12.276Z,8.16
2018-11-06T01:10:15.990Z,8.16
2018-11-06T01:13:19.541Z,8.05
2018-11-06T01:16:23.235Z,8.06
2018-11-06T01:19:26.741Z,7.83
2018-11-06T01:22:30.859Z,7.77
2018-11-06T01:25:34.410Z,7.70
2018-11-06T01:28:38.003Z,7.62
2018-11-06T01:31:41.518Z,7.68
2018-11-06T01:34:45.065Z,7.76
2018-11-06T01:37:48.603Z,7.86
2018-11-06T01:40:52.121Z,8.00
2018-11-06T01:43:55.531Z,8.03
2018-11-06T01:46:59.017Z,8.04
2018-11-06T01:50:02.531Z,8.09
2018-11-06T01:53:06.191Z,8.15
2018-11-06T01:56:09.732Z,8.23
2018-11-06T01:59:13.252Z,8.02
2018-11-06T02:02:16.821Z,8.04
2018-11-06T02:05:20.331Z,8.12
2018-11-06T02:08:23.850Z,8.09
2018-11-06T02:11:27.503Z,8.08
2018-11-06T02:14:32.104Z,8.04
2018-11-06T02:17:35.759Z,8.00
2018-11-06T02:20:39.342Z,7.89
2018-11-06T02:23:42.842Z,7.88
2018-11-06T02:26:46.377Z,7.92
2018-11-06T02:29:49.819Z,7.93
2018-11-06T02:32:53.496Z,7.99
2018-11-06T02:35:57.108Z,7.94
2018-11-06T02:39:00.620Z,7.89
2018-11-06T02:42:04.404Z,7.93
2018-11-06T02:45:08.514Z,7.98
2018-11-06T02:48:12.063Z,7.92
2018-11-06T02:51:15.675Z,7.98
2018-11-06T02:54:19.229Z,7.97
2018-11-06T02:57:22.695Z,7.95
2018-11-06T03:00:26.324Z,7.93
2018-11-06T03:03:34.083Z,7.93
2018-11-06T03:06:37.576Z,7.95
2018-11-06T03:09:41.089Z,7.86
2018-11-06T03:12:45.318Z,7.97
2018-11-06T03:15:48.925Z,8.06
2018-11-06T03:18:52.627Z,8.09
2018-11-06T03:21:56.474Z,7.98
2018-11-06T03:25:00.149Z,7.94
2018-11-06T03:28:03.788Z,7.86
2018-11-06T03:31:07.704Z,7.81
2018-11-06T03:34:11.342Z,7.74
2018-11-06T03:37:14.933Z,7.64
2018-11-06T03:40:18.458Z,7.64
2018-11-06T03:43:21.996Z,7.78
2018-11-06T03:46:25.544Z,7.87
2018-11-06T03:49:29.251Z,7.71
2018-11-06T03:52:32.735Z,7.77
2018-11-06T03:55:36.268Z,7.83
2018-11-06T03:58:40.022Z,7.80
2018-11-06T04:01:43.663Z,7.79
2018-11-06T04:04:47.230Z,7.87
2018-11-06T04:07:51.110Z,7.87
2018-11-06T04:10:54.699Z,7.86
2018-11-06T04:13:58.170Z,7.94
2018-11-06T04:17:01.684Z,7.89
2018-11-06T04:20:05.915Z,7.86
2018-11-06T04:23:09.408Z,7.87
2018-11-06T04:26:12.951Z,7.92
2018-11-06T04:29:16.421Z,7.95
2018-11-06T04:32:19.979Z,7.89
2018-11-06T04:35:23.501Z,7.75
2018-11-06T04:38:27.040Z,7.65
2018-11-06T04:41:30.541Z,7.72
2018-11-06T04:44:34.030Z,7.76
2018-11-06T04:47:37.678Z,7.86
2018-11-06T04:50:41.253Z,7.94
2018-11-06T04:53:44.665Z,7.90
2018-11-06T04:56:48.158Z,7.87
2018-11-06T04:59:51.657Z,7.85
2018-11-06T05:02:55.074Z,7.88
2018-11-06T05:05:58.547Z,7.89
2018-11-06T05:09:02.032Z,7.90
2018-11-06T05:12:05.934Z,7.96
2018-11-06T05:15:11.896Z,8.02
2018-11-06T05:18:15.422Z,8.02
2018-11-06T05:21:18.905Z,8.00
2018-11-06T05:24:22.433Z,8.06
2018-11-06T05:27:26.011Z,7.97
2018-11-06T05:30:29.560Z,8.02
2018-11-06T05:33:33.028Z,7.95
2018-11-06T05:36:36.531Z,7.96
2018-11-06T05:39:51.369Z,7.92
2018-11-06T05:42:54.805Z,7.89
2018-11-06T05:45:58.437Z,7.84
2018-11-06T05:49:01.833Z,7.92
2018-11-06T05:52:05.716Z,7.88
2018-11-06T05:55:09.352Z,7.75
2018-11-06T05:58:12.887Z,7.61
2018-11-06T06:01:16.453Z,7.46
2018-11-06T06:04:19.997Z,7.50
2018-11-06T06:07:23.521Z,7.52
2018-11-06T06:10:27.553Z,7.66
2018-11-06T06:13:33.265Z,7.68
2018-11-06T06:16:36.871Z,7.63
2018-11-06T06:19:40.419Z,7.49
2018-11-06T06:22:44.055Z,7.37
2018-11-06T06:25:48.683Z,7.40
2018-11-06T06:28:53.227Z,7.33
2018-11-06T06:31:56.877Z,7.31
2018-11-06T06:35:00.382Z,7.46
2018-11-06T06:38:03.902Z,7.58
2018-11-06T06:41:07.554Z,7.55
2018-11-06T06:44:11.123Z,7.53
2018-11-06T06:47:14.697Z,7.51
2018-11-06T06:50:19.388Z,7.42
2018-11-06T06:53:22.893Z,7.29
2018-11-06T06:56:26.461Z,7.23
2018-11-06T06:59:30.018Z,7.31
2018-11-06T07:02:33.619Z,7.42
2018-11-06T07:05:37.090Z,7.30
2018-11-06T07:08:40.710Z,7.21
2018-11-06T07:11:44.521Z,7.26
2018-11-06T07:14:48.083Z,7.33
2018-11-06T07:17:52.344Z,7.29
2018-11-06T07:20:55.847Z,7.42
2018-11-06T07:23:59.288Z,7.55
2018-11-06T07:27:02.785Z,7.61
2018-11-06T07:30:08.825Z,7.63
2018-11-06T07:33:12.301Z,7.69
2018-11-06T07:36:15.852Z,7.57
2018-11-06T07:39:19.545Z,7.46
2018-11-06T07:42:23.010Z,7.48
2018-11-06T07:45:26.542Z,7.63
2018-11-06T07:48:30.040Z,7.48
2018-11-06T07:51:33.546Z,7.51
2018-11-06T07:54:37.028Z,7.58
2018-11-06T07:57:40.755Z,7.53
2018-11-06T08:00:44.238Z,7.56
2018-11-06T08:03:47.748Z,7.40
2018-11-06T08:06:51.216Z,7.41
2018-11-06T08:09:54.776Z,7.40
2018-11-06T08:12:58.364Z,7.35
2018-11-06T08:16:01.821Z,7.33
2018-11-06T08:19:05.435Z,7.37
2018-11-06T08:22:09.098Z,7.39
2018-11-06T08:25:13.728Z,7.45
2018-11-06T08:28:17.201Z,7.52
2018-11-06T08:31:21.302Z,7.43
2018-11-06T08:34:24.260Z,7.35
2018-11-06T08:37:27.841Z,7.29
2018-11-06T08:40:31.368Z,7.36
2018-11-06T08:43:34.935Z,7.34
2018-11-06T08:46:38.547Z,7.40
2018-11-06T08:49:42.116Z,7.38
2018-11-06T08:52:45.748Z,7.40
2018-11-06T08:55:49.211Z,7.39
2018-11-06T08:58:52.662Z,7.46
2018-11-06T09:01:56.167Z,7.42
2018-11-06T09:04:59.618Z,7.35
2018-11-06T09:08:03.202Z,7.35
2018-11-06T09:11:06.689Z,7.34
2018-11-06T09:14:10.162Z,7.22
2018-11-06T09:17:13.670Z,7.34
2018-11-06T09:20:17.644Z,7.33
2018-11-06T09:23:21.088Z,7.25
2018-11-06T09:26:24.638Z,7.17
2018-11-06T09:29:28.107Z,7.21
2018-11-06T09:32:31.580Z,7.33
2018-11-06T09:35:35.021Z,7.33
2018-11-06T09:38:38.518Z,7.42
2018-11-06T09:41:42.372Z,7.43
2018-11-06T09:44:45.861Z,7.42
2018-11-06T09:47:49.334Z,7.51
2018-11-06T09:50:52.745Z,7.48
2018-11-06T09:53:56.178Z,7.51
2018-11-06T09:56:59.616Z,7.55
2018-11-06T10:00:03.170Z,7.57
2018-11-06T10:03:06.705Z,7.50
2018-11-06T10:06:10.195Z,7.57
2018-11-06T10:09:13.741Z,7.72
2018-11-06T10:12:17.234Z,7.73
2018-11-06T10:15:21.407Z,7.68
2018-11-06T10:18:24.849Z,7.87
2018-11-06T10:21:28.409Z,8.04
2018-11-06T10:24:31.939Z,8.20
2018-11-06T10:27:35.563Z,8.06
2018-11-06T10:30:39.050Z,7.83
2018-11-06T10:33:43.475Z,7.87
2018-11-06T10:36:47.013Z,8.00
2018-11-06T10:39:50.445Z,8.09
2018-11-06T10:42:53.852Z,8.06
2018-11-06T10:45:57.326Z,8.15
2018-11-06T10:49:00.896Z,8.27
2018-11-06T10:52:04.418Z,8.42
2018-11-06T10:55:08.491Z,8.26
2018-11-06T10:58:12.062Z,8.22
2018-11-06T11:01:20.884Z,8.18
2018-11-06T11:04:25.571Z,8.11
2018-11-06T11:07:29.182Z,8.13
2018-11-06T11:10:32.758Z,7.98
2018-11-06T11:13:36.293Z,7.94
2018-11-06T11:16:39.866Z,7.92
2018-11-06T11:19:43.379Z,8.11
2018-11-06T11:22:46.851Z,8.11
2018-11-06T11:25:50.526Z,8.18
2018-11-06T11:28:54.026Z,8.32
2018-11-06T11:31:58.699Z,8.38
2018-11-06T11:35:02.224Z,8.43
2018-11-06T11:38:05.886Z,8.44
2018-11-06T11:41:09.534Z,8.43
2018-11-06T11:44:14.077Z,8.53
2018-11-06T11:47:17.713Z,8.59
2018-11-06T11:50:21.443Z,8.74
2018-11-06T11:53:24.986Z,8.77
2018-11-06T11:56:28.548Z,8.89
2018-11-06T11:59:32.093Z,8.82
2018-11-06T12:02:35.699Z,8.91
2018-11-06T12:05:39.259Z,8.90
2018-11-06T12:08:42.871Z,8.89
2018-11-06T12:11:46.468Z,8.82
2018-11-06T12:14:50.017Z,8.80
2018-11-06T12:17:53.643Z,8.71
2018-11-06T12:20:57.262Z,8.81
2018-11-06T12:24:00.948Z,9.03
2018-11-06T12:27:04.435Z,8.89
2018-11-06T12:30:12.349Z,8.78
2018-11-06T12:33:15.907Z,8.76
2018-11-06T12:36:19.571Z,8.95
2018-11-06T12:39:23.180Z,9.20
2018-11-06T12:42:26.774Z,9.31
2018-11-06T12:45:30.675Z,9.28
2018-11-06T12:48:34.146Z,9.24
2018-11-06T12:51:37.745Z,9.29
2018-11-06T12:54:43.259Z,9.37
2018-11-06T12:57:46.849Z,9.38
2018-11-06T13:00:50.401Z,9.52
2018-11-06T13:03:53.981Z,9.58
2018-11-06T13:06:57.613Z,9.75
2018-11-06T13:10:01.287Z,9.60
2018-11-06T13:13:05.090Z,9.79
2018-11-06T13:16:08.893Z,9.82
2018-11-06T13:19:12.561Z,9.94
2018-11-06T13:22:16.067Z,9.92
2018-11-06T13:25:19.605Z,9.92
2018-11-06T13:28:23.164Z,9.91
2018-11-06T13:31:26.713Z,9.92
2018-11-06T13:34:30.353Z,9.88
2018-11-06T13:37:34.097Z,10.01
2018-11-06T13:40:37.675Z,9.97
2018-11-06T13:43:41.569Z,9.91
2018-11-06T13:46:45.177Z,9.96
2018-11-06T13:49:49.110Z,10.08
2018-11-06T13:52:52.704Z,10.18
2018-11-06T13:55:56.712Z,10.15
2018-11-06T13:59:00.339Z,10.16
2018-11-06T14:02:04.087Z,10.22
2018-11-06T14:05:07.636Z,10.20
2018-11-06T14:08:11.257Z,10.25
2018-11-06T14:11:14.851Z,10.24
2018-11-06T14:14:18.460Z,10.23
2018-11-06T14:17:22.030Z,10.21
2018-11-06T14:20:25.675Z,10.21
2018-11-06T14:23:29.218Z,10.24
2018-11-06T14:26:32.744Z,10.32
2018-11-06T14:29:36.349Z,10.39
2018-11-06T14:32:40.271Z,10.42
2018-11-06T14:35:43.896Z,10.45
2018-11-06T14:38:47.475Z,10.49
2018-11-06T14:41:51.095Z,10.54
2018-11-06T14:44:54.688Z,10.54
2018-11-06T14:47:58.372Z,10.74
2018-11-06T14:51:01.814Z,10.62
2018-11-06T14:54:05.581Z,10.53
2018-11-06T14:57:09.136Z,10.65
2018-11-06T15:00:16.075Z,10.57
2018-11-06T15:03:19.737Z,10.52
2018-11-06T15:06:23.302Z,10.45
2018-11-06T15:09:26.809Z,10.51
2018-11-06T15:12:30.501Z,10.54
2018-11-06T15:15:34.048Z,10.67
2018-11-06T15:18:37.612Z,10.77
2018-11-06T15:21:41.148Z,10.79
2018-11-06T15:24:45.772Z,10.83
2018-11-06T15:27:49.353Z,10.85
2018-11-06T15:30:53.957Z,10.77
2018-11-06T15:33:57.498Z,10.71
2018-11-06T15:37:02.014Z,10.59
2018-11-06T15:40:07.080Z,10.60
2018-11-06T15:43:10.620Z,10.48
2018-11-06T15:46:14.092Z,10.44
2018-11-06T15:49:18.032Z,10.42
2018-11-06T15:52:22.038Z,10.43
2018-11-06T15:55:25.529Z,10.47
2018-11-06T15:58:29.194Z,10.59
2018-11-06T16:01:32.817Z,10.58
2018-11-06T16:04:36.573Z,10.64
2018-11-06T16:07:40.253Z,10.70
2018-11-06T16:10:43.799Z,10.74
2018-11-06T16:13:47.236Z,10.75
2018-11-06T16:16:50.703Z,10.75
2018-11-06T16:19:54.331Z,10.69
2018-11-06T16:22:57.883Z,10.70
2018-11-06T16:26:01.411Z,10.73
2018-11-06T16:29:05.208Z,10.70
2018-11-06T16:32:08.813Z,10.66
2018-11-06T16:35:13.965Z,10.63
2018-11-06T16:38:17.664Z,10.51
2018-11-06T16:41:21.811Z,10.47
2018-11-06T16:44:25.592Z,10.51
2018-11-06T16:47:29.393Z,10.54
2018-11-06T16:50:33.094Z,10.61
2018-11-06T16:53:36.706Z,10.52
2018-11-06T16:56:40.209Z,10.53
2018-11-06T16:59:43.758Z,10.47
2018-11-06T17:02:47.102Z,10.57
2018-11-06T17:05:50.623Z,10.61
2018-11-06T17:08:54.261Z,10.57
2018-11-06T17:11:57.881Z,10.50
2018-11-06T17:15:01.833Z,10.50
2018-11-06T17:18:05.851Z,10.45
2018-11-06T17:21:09.328Z,10.43
2018-11-06T17:24:12.961Z,10.39
2018-11-06T17:27:16.445Z,10.23
2018-11-06T17:30:20.231Z,10.13
2018-11-06T17:33:23.862Z,10.13
2018-11-06T17:36:27.411Z,10.23
2018-11-06T17:39:31.010Z,10.12
2018-11-06T17:42:35.613Z,10.17
2018-11-06T17:45:40.853Z,10.11
2018-11-06T17:48:44.367Z,9.94
2018-11-06T17:51:47.916Z,9.80
2018-11-06T17:54:51.370Z,9.89
2018-11-06T17:57:54.893Z,9.81
2018-11-06T18:00:58.302Z,9.67
2018-11-06T18:04:01.940Z,9.69
2018-11-06T18:07:05.524Z,9.76
2018-11-06T18:10:10.307Z,9.78
2018-11-06T18:13:14.128Z,9.81
2018-11-06T18:16:17.667Z,9.77
2018-11-06T18:19:21.077Z,9.74
2018-11-06T18:22:24.623Z,9.82
2018-11-06T18:25:28.345Z,9.89
2018-11-06T18:28:31.824Z,9.87
2018-11-06T18:31:35.591Z,9.93
2018-11-06T18:34:39.345Z,9.95
2018-11-06T18:37:43.172Z,9.95
2018-11-06T18:40:46.788Z,10.03
2018-11-06T18:43:50.328Z,10.10
2018-11-06T18:46:53.906Z,10.10
2018-11-06T18:49:57.636Z,10.21
2018-11-06T18:53:01.147Z,10.28
2018-11-06T18:56:05.080Z,10.31
2018-11-06T18:59:08.739Z,10.33
2018-11-06T19:02:12.293Z,10.31
2018-11-06T19:05:16.504Z,10.34
2018-11-06T19:08:20.163Z,10.36
2018-11-06T19:11:23.689Z,10.37
2018-11-06T19:14:27.259Z,10.37
2018-11-06T19:17:30.829Z,10.41
2018-11-06T19:20:34.456Z,10.39
2018-11-06T19:23:38.036Z,10.32
2018-11-06T19:26:41.539Z,10.26
2018-11-06T19:29:45.055Z,10.22
2018-11-06T19:32:48.966Z,10.24
2018-11-06T19:35:52.515Z,10.22
2018-11-06T19:38:56.074Z,10.22
2018-11-06T19:41:59.561Z,10.22
2018-11-06T19:45:03.076Z,10.24
2018-11-06T19:48:06.673Z,10.12
2018-11-06T19:51:10.192Z,10.06
2018-11-06T19:54:13.835Z,10.01
2018-11-06T19:57:17.243Z,9.86
2018-11-06T20:00:22.501Z,9.77
2018-11-06T20:03:26.025Z,9.78
2018-11-06T20:06:29.551Z,9.86
2018-11-06T20:09:33.055Z,9.87
2018-11-06T20:12:36.760Z,9.82
2018-11-06T20:15:40.631Z,9.82
2018-11-06T20:18:44.832Z,9.86
2018-11-06T20:21:49.634Z,9.85
2018-11-06T20:24:53.053Z,9.93
2018-11-06T20:27:56.597Z,9.98
2018-11-06T20:31:00.099Z,10.00
2018-11-06T20:34:03.749Z,9.97
2018-11-06T20:37:07.730Z,9.87
2018-11-06T20:40:14.346Z,9.84
2018-11-06T20:43:18.080Z,9.78
2018-11-06T20:46:21.507Z,9.81
2018-11-06T20:49:25.065Z,9.81
2018-11-06T20:52:28.596Z,9.79
2018-11-06T20:55:32.107Z,9.76
2018-11-06T20:58:35.691Z,9.71
2018-11-06T21:01:39.212Z,9.71
2018-11-06T21:04:42.758Z,9.68
2018-11-06T21:07:46.939Z,9.65
2018-11-06T21:10:50.401Z,9.58
2018-11-06T21:13:53.928Z,9.53
2018-11-06T21:16:57.485Z,9.50
2018-11-06T21:20:01.150Z,9.48
2018-11-06T21:23:04.715Z,9.38
2018-11-06T21:26:08.307Z,9.25
2018-11-06T21:29:11.824Z,9.17
2018-11-06T21:32:15.395Z,9.10
2018-11-06T21:35:18.918Z,9.11
2018-11-06T21:38:22.374Z,9.08
2018-11-06T21:41:25.894Z,8.99
2018-11-06T21:44:29.416Z,8.94
2018-11-06T21:47:32.894Z,8.93
2018-11-06T21:50:36.449Z,8.88
2018-11-06T21:53:39.951Z,8.92
2018-11-06T21:56:43.591Z,8.89
2018-11-06T21:59:47.120Z,8.90
2018-11-06T22:02:51.641Z,8.89
2018-11-06T22:05:55.195Z,8.89
2018-11-06T22:08:58.662Z,8.86
2018-11-06T22:12:02.177Z,8.80
2018-11-06T22:15:07.095Z,8.78
2018-11-06T22:18:10.541Z,8.80
2018-11-06T22:21:13.979Z,8.78
2018-11-06T22:24:17.542Z,8.80
2018-11-06T22:27:20.987Z,8.81
2018-11-06T22:30:24.462Z,8.85
2018-11-06T22:33:27.919Z,8.88
2018-11-06T22:36:31.378Z,8.85
2018-11-06T22:39:34.904Z,8.89
2018-11-06T22:42:38.691Z,8.98
2018-11-06T22:45:42.222Z,9.02
2018-11-06T22:48:45.701Z,9.08
2018-11-06T22:51:49.210Z,9.13
2018-11-06T22:54:53.649Z,9.15
2018-11-06T22:57:57.222Z,9.14
2018-11-06T23:01:06.091Z,9.13
2018-11-06T23:04:09.566Z,9.14
2018-11-06T23:07:18.596Z,9.11
2018-11-06T23:10:22.052Z,9.09
2018-11-06T23:13:25.836Z,9.08
2018-11-06T23:16:29.402Z,9.06
2018-11-06T23:19:32.955Z,9.04
2018-11-06T23:22:36.421Z,9.04
2018-11-06T23:25:40.152Z,9.03
2018-11-06T23:28:43.702Z,9.00
2018-11-06T23:31:47.424Z,8.98
2018-11-06T23:34:50.861Z,8.93
2018-11-06T23:37:54.457Z,8.88
2018-11-06T23:40:58.055Z,8.84
2018-11-06T23:44:01.730Z,8.81
2018-11-06T23:47:05.479Z,8.77
2018-11-06T23:50:10.130Z,8.73
2018-11-06T23:53:13.684Z,8.66
2018-11-06T23:56:17.344Z,8.60
2018-11-06T23:59:21.970Z,8.57
